Time;durP1;ratioP1;P1;durP2;ratioP2;P2;SDS_P1;SDS_P2;PMS_P1;PMS_P2;Temp;Humidity;BMP_temperature;BMP_pressure;BME280_temperature;BME280_humidity;BME280_pressure;Samples;Min_cycle;Max_cycle;Signal;HPM_P1;HPM_P2
2022/08/18 00:02:15;;;;;;;23.83;9.82;;;;;;;21.81;85.06;94571.56;6114168;23;20204;-78
2022/08/18 00:04:42;;;;;;;19.70;9.50;;;;;;;21.74;85.11;94575.63;6114081;23;20157;-78
2022/08/18 00:07:13;;;;;;;22.00;9.77;;;;;;;21.74;85.37;94575.63;6113803;23;20172;-78
2022/08/18 00:09:41;;;;;;;26.25;9.52;;;;;;;21.70;86.52;94578.06;6112465;23;20171;-79
2022/08/18 00:12:18;;;;;;;23.40;9.93;;;;;;;21.91;85.11;94573.25;6113396;23;20204;-79
2022/08/18 00:14:46;;;;;;;16.95;8.35;;;;;;;22.04;83.12;94575.97;6114144;23;20225;-79
2022/08/18 00:17:15;;;;;;;22.52;8.98;;;;;;;22.04;83.12;94578.59;6113935;23;20176;-79
2022/08/18 00:19:42;;;;;;;18.55;8.68;;;;;;;22.04;82.85;94583.13;6111642;23;20647;-79
2022/08/18 00:22:10;;;;;;;14.07;8.10;;;;;;;22.00;83.08;94580.25;6114279;23;20175;-77
2022/08/18 00:24:37;;;;;;;16.48;8.60;;;;;;;;;;6114414;23;20574;-77
2022/08/18 00:27:04;;;;;;;14.02;8.48;;;;;;;21.92;82.82;94580.94;6113606;23;20208;-77
2022/08/18 00:29:31;;;;;;;13.20;7.95;;;;;;;21.84;83.25;94586.06;6112211;23;20565;-78
2022/08/18 00:31:58;;;;;;;14.27;7.43;;;;;;;21.77;83.14;94581.13;6113893;23;20177;-77
2022/08/18 00:34:27;;;;;;;11.98;6.43;;;;;;;21.70;83.05;94572.78;6114815;23;20176;-77
2022/08/18 00:36:54;;;;;;;11.93;6.95;;;;;;;21.66;83.33;94584.22;6113671;23;20172;-78
2022/08/18 00:39:20;;;;;;;12.90;7.28;;;;;;;21.66;83.88;94582.38;6112077;23;20165;-78
2022/08/18 00:41:47;;;;;;;15.18;7.50;;;;;;;21.59;84.37;94583.81;6112858;23;20251;-78
2022/08/18 00:44:15;;;;;;;12.27;7.30;;;;;;;21.58;84.88;94590.19;6113984;23;20200;-78
2022/08/18 00:46:42;;;;;;;14.27;7.20;;;;;;;21.56;84.31;94587.06;6113706;23;20271;-78
2022/08/18 00:49:09;;;;;;;13.80;7.43;;;;;;;21.47;83.26;94579.75;6113711;23;20541;-79
2022/08/18 00:51:43;;;;;;;11.48;7.50;;;;;;;21.67;83.33;94585.81;6111339;23;20195;-78
2022/08/18 00:54:16;;;;;;;14.25;8.10;;;;;;;21.78;82.28;94595.16;6113246;23;20168;-78
2022/08/18 00:56:44;;;;;;;16.00;8.20;;;;;;;21.76;83.39;94590.13;6113795;23;20160;-77
2022/08/18 00:59:17;;;;;;;14.20;8.32;;;;;;;21.67;84.83;94601.69;6112630;23;20561;-78
2022/08/18 01:01:46;;;;;;;19.10;8.23;;;;;;;21.58;84.70;94598.13;6111596;23;20643;-78
2022/08/18 01:04:18;;;;;;;13.60;8.00;;;;;;;21.54;84.91;94594.47;6113869;23;20172;-77
2022/08/18 01:06:50;;;;;;;10.75;7.55;;;;;;;21.44;85.66;94598.81;6113712;23;20165;-78
2022/08/18 01:09:18;;;;;;;14.95;8.35;;;;;;;21.38;86.38;94589.41;6113169;23;20207;-78
2022/08/18 01:11:45;;;;;;;16.52;8.10;;;;;;;21.39;87.04;94585.69;6112427;23;20191;-78
2022/08/18 01:14:14;;;;;;;14.02;7.78;;;;;;;21.36;86.88;94582.81;6113544;23;20179;-77
2022/08/18 01:22:22;;;;;;;11.13;7.93;;;;;;;21.30;87.21;94597.19;6113877;23;20164;-78
2022/08/18 01:27:36;;;;;;;16.02;8.23;;;;;;;21.26;86.65;94585.63;6110927;23;20233;-78
2022/08/18 01:30:09;;;;;;;18.23;8.65;;;;;;;21.22;86.56;94593.34;6114371;23;20173;-78
2022/08/18 01:32:38;;;;;;;19.65;8.40;;;;;;;21.18;86.80;94584.38;6114252;23;20157;-78
2022/08/18 01:35:08;;;;;;;15.75;8.73;;;;;;;21.17;86.88;94587.31;6113526;23;20533;-78
2022/08/18 01:37:35;;;;;;;14.90;8.70;;;;;;;21.17;86.17;94592.63;6111894;23;20230;-78
2022/08/18 01:40:05;;;;;;;18.13;8.32;;;;;;;21.09;86.46;94594.03;6113451;23;20177;-78
2022/08/18 01:42:33;;;;;;;16.67;9.13;;;;;;;21.00;87.76;94593.06;6114084;23;20168;-78
2022/08/18 01:45:02;;;;;;;18.25;8.05;;;;;;;21.03;88.44;94589.88;6114485;23;20169;-79
2022/08/18 01:47:30;;;;;;;16.60;9.25;;;;;;;20.93;89.54;94579.41;6111976;23;20242;-79
2022/08/18 01:49:57;;;;;;;16.08;8.32;;;;;;;20.98;89.56;94586.50;6113404;23;20212;-79
2022/08/18 01:52:24;;;;;;;19.42;9.18;;;;;;;20.99;89.76;94586.22;6115510;23;20635;-77
2022/08/18 01:54:52;;;;;;;22.95;9.73;;;;;;;20.97;89.38;94579.63;6112602;23;20658;-79
2022/08/18 01:57:21;;;;;;;21.27;11.65;;;;;;;20.88;88.27;94571.56;6113081;23;20179;-80
2022/08/18 01:59:48;;;;;;;24.80;11.90;;;;;;;20.94;88.10;94586.28;6112782;23;20195;-78
2022/08/18 02:02:23;;;;;;;23.65;11.77;;;;;;;20.95;88.03;94583.34;6112319;23;20213;-79
2022/08/18 02:04:51;;;;;;;28.30;12.70;;;;;;;20.92;87.53;94583.13;6113480;23;20168;-79
2022/08/18 02:07:18;;;;;;;21.40;12.02;;;;;;;20.80;87.41;94569.53;6112709;23;20238;-79
2022/08/18 02:09:45;;;;;;;24.55;12.27;;;;;;;20.83;86.75;94585.63;6111645;23;20274;-79
2022/08/18 02:12:13;;;;;;;20.60;11.27;;;;;;;20.82;86.83;94588.53;6113836;23;20173;-79
2022/08/18 02:14:41;;;;;;;19.92;10.73;;;;;;;20.79;87.54;94587.25;6112151;23;20554;-78
2022/08/18 02:17:10;;;;;;;20.23;10.75;;;;;;;20.80;87.78;94593.31;6113582;23;20164;-79
2022/08/18 02:19:39;;;;;;;20.08;11.13;;;;;;;20.84;87.50;94589.81;6111334;23;20179;-78
2022/08/18 02:22:08;;;;;;;19.35;10.90;;;;;;;20.78;86.98;94575.09;6113260;23;20169;-80
2022/08/18 02:24:35;;;;;;;18.02;9.85;;;;;;;20.86;86.62;94586.91;6112924;23;20172;-78
2022/08/18 02:27:02;;;;;;;24.45;11.13;;;;;;;20.98;87.34;94591.78;6113611;23;20259;-77
2022/08/18 02:29:29;;;;;;;22.10;10.70;;;;;;;20.97;87.64;94587.56;6111585;23;20196;-78
2022/08/18 02:31:58;;;;;;;22.88;10.63;;;;;;;20.83;87.26;94569.78;6113291;23;20273;-78
2022/08/18 02:34:25;;;;;;;23.40;11.57;;;;;;;20.87;86.74;94570.75;6113568;23;20176;-78
2022/08/18 02:36:52;;;;;;;24.88;11.38;;;;;;;20.84;87.29;94583.75;6113640;23;20196;-78
2022/08/18 02:39:19;;;;;;;20.45;10.77;;;;;;;20.79;88.04;94575.88;6112374;23;20168;-78
2022/08/18 02:41:47;;;;;;;20.08;11.07;;;;;;;20.69;88.31;94571.50;6111893;23;20176;-79
2022/08/18 02:44:14;;;;;;;29.25;11.82;;;;;;;20.72;88.94;94580.75;6113147;23;20226;-78
2022/08/18 02:46:41;;;;;;;23.67;12.18;;;;;;;20.69;89.39;94584.72;6113736;23;20172;-80
2022/08/18 02:49:09;;;;;;;24.65;11.98;;;;;;;20.60;89.00;94580.34;6113411;23;20200;-79
2022/08/18 02:51:36;;;;;;;24.40;12.40;;;;;;;20.61;89.83;94580.06;6111087;23;20506;-78
2022/08/18 02:54:08;;;;;;;19.25;12.57;;;;;;;20.59;90.14;94584.06;6114062;23;20168;-77
2022/08/18 02:56:35;;;;;;;28.73;13.82;;;;;;;20.57;90.51;94584.34;6113778;23;20161;-78
2022/08/18 02:59:05;;;;;;;25.27;13.30;;;;;;;20.49;90.91;94586.81;6113143;23;20623;-78
2022/08/18 03:01:34;;;;;;;18.17;10.32;;;;;;;20.42;90.50;94583.72;6111641;23;20180;-78
2022/08/18 03:04:06;;;;;;;15.45;8.90;;;;;;;20.36;90.48;94583.00;6114322;23;20177;-79
2022/08/18 03:06:38;;;;;;;15.80;9.45;;;;;;;20.40;90.22;94583.22;6113575;23;20183;-79
2022/08/18 03:09:06;;;;;;;17.17;9.32;;;;;;;20.34;90.78;94579.84;6113100;23;20181;-78
2022/08/18 03:11:33;;;;;;;17.77;10.25;;;;;;;20.32;91.36;94587.25;6110735;23;20655;-78
2022/08/18 03:14:00;;;;;;;24.98;12.18;;;;;;;20.30;92.07;94584.09;6113223;23;20627;-79
2022/08/18 03:16:31;;;;;;;20.33;10.85;;;;;;;20.29;92.76;94579.88;6113814;23;20172;-78
2022/08/18 03:18:58;;;;;;;19.70;11.07;;;;;;;20.46;90.79;94592.66;6113728;23;20630;-78
2022/08/18 03:21:28;;;;;;;20.50;12.10;;;;;;;20.43;91.53;94598.50;6111328;23;20176;-78
2022/08/18 03:23:57;;;;;;;18.83;11.98;;;;;;;20.38;90.80;94602.75;6113018;23;20194;-78
2022/08/18 03:26:26;;;;;;;20.48;12.30;;;;;;;20.40;90.27;94604.34;6113734;23;20274;-77
2022/08/18 03:28:54;;;;;;;21.52;11.85;;;;;;;20.38;90.11;94597.47;6114159;23;20196;-77
2022/08/18 03:31:23;;;;;;;20.20;11.93;;;;;;;20.34;90.29;94603.59;6113195;23;20228;-78
2022/08/18 03:33:50;;;;;;;23.33;12.30;;;;;;;20.17;91.73;94588.16;6112771;23;20259;-78
2022/08/18 03:36:20;;;;;;;28.60;12.52;;;;;;;20.18;92.11;94591.59;6113607;23;20635;-78
2022/08/18 03:38:48;;;;;;;25.67;12.02;;;;;;;20.19;92.76;94598.44;6114038;23;20228;-79
2022/08/18 03:41:21;;;;;;;28.45;13.38;;;;;;;20.11;92.80;94588.50;6113899;23;20176;-78
2022/08/18 03:43:48;;;;;;;30.25;12.68;;;;;;;20.13;92.79;94595.06;6113013;23;20646;-79
2022/08/18 03:46:16;;;;;;;23.65;13.13;;;;;;;20.09;93.04;94590.59;6114817;23;20693;-78
2022/08/18 03:48:45;;;;;;;27.60;12.45;;;;;;;20.11;93.57;94597.19;6114354;23;20196;-78
2022/08/18 03:51:16;;;;;;;24.65;12.15;;;;;;;20.06;93.63;94597.22;6113233;23;20168;-77
2022/08/18 03:53:43;;;;;;;31.85;12.88;;;;;;;20.00;94.33;94597.56;6112528;23;20205;-76
2022/08/18 03:56:14;;;;;;;23.05;12.05;;;;;;;19.98;94.49;94589.13;6114073;23;20216;-76
2022/08/18 03:58:44;;;;;;;24.10;10.80;;;;;;;20.06;94.19;94612.28;6113971;23;20161;-76
2022/08/18 04:01:14;;;;;;;28.80;10.35;;;;;;;19.99;94.01;94598.63;6113919;23;20523;-77
2022/08/18 04:03:42;;;;;;;27.63;10.32;;;;;;;19.99;94.15;94607.34;6112101;23;20685;-77
2022/08/18 04:06:14;;;;;;;21.23;9.25;;;;;;;20.01;93.87;94610.47;6113126;23;20708;-77
2022/08/18 04:08:41;;;;;;;25.88;9.48;;;;;;;20.13;93.56;94613.53;6113841;23;20181;-77
2022/08/18 04:11:07;;;;;;;24.40;9.00;;;;;;;20.15;93.10;94611.41;6113806;23;20631;-77
2022/08/18 04:13:36;;;;;;;27.90;10.27;;;;;;;20.20;92.76;94624.53;6111530;23;20639;-77
2022/08/18 04:16:04;;;;;;;37.08;10.77;;;;;;;20.18;92.61;94623.25;6114292;23;20199;-78
2022/08/18 04:18:31;;;;;;;25.88;9.70;;;;;;;20.20;92.38;94626.41;6113907;23;20179;-79
2022/08/18 04:21:02;;;;;;;24.75;10.23;;;;;;;20.13;93.01;94628.59;6114435;23;20172;-79
2022/08/18 04:23:29;;;;;;;21.00;10.68;;;;;;;20.16;93.45;94631.47;6112852;23;20702;-77
2022/08/18 04:25:57;;;;;;;31.73;10.45;;;;;;;20.15;92.89;94635.16;6113370;23;20573;-79
2022/08/18 04:28:26;;;;;;;25.17;10.38;;;;;;;20.16;93.24;94636.75;6113993;23;20178;-78
2022/08/18 04:30:55;;;;;;;29.52;10.60;;;;;;;20.18;92.77;94631.97;6114663;23;20176;-78
2022/08/18 04:33:23;;;;;;;31.42;10.73;;;;;;;20.23;92.94;94636.44;6112903;23;20173;-80
2022/08/18 04:35:50;;;;;;;21.27;10.18;;;;;;;20.20;93.32;94639.63;6112670;23;20173;-78
2022/08/18 04:38:17;;;;;;;21.08;10.13;;;;;;;20.21;93.51;94635.91;6113511;23;20255;-78
2022/08/18 04:40:44;;;;;;;25.50;10.45;;;;;;;20.20;93.22;94637.75;6113707;23;20592;-79
2022/08/18 04:43:14;;;;;;;22.88;10.95;;;;;;;20.27;93.02;94643.53;6113752;23;20631;-74
2022/08/18 04:45:43;;;;;;;25.25;10.30;;;;;;;20.31;92.59;94639.28;6112051;23;20468;-74
2022/08/18 04:48:11;;;;;;;22.55;10.23;;;;;;;20.22;92.75;94630.34;6058174;23;20686;-74
2022/08/18 04:50:39;;;;;;;28.50;10.65;;;;;;;20.35;92.99;94642.91;6106476;23;20193;-74
2022/08/18 04:55:52;;;;;;;19.00;11.10;;;;;;;20.49;91.74;94650.97;6108411;23;20191;-74
2022/08/18 04:58:19;;;;;;;18.92;10.30;;;;;;;20.58;91.70;94659.06;6109754;23;20172;-74
2022/08/18 05:00:46;;;;;;;17.25;10.00;;;;;;;20.60;91.57;94646.38;6109955;23;20173;-74
2022/08/18 05:03:13;;;;;;;17.35;9.85;;;;;;;20.64;90.99;94648.16;6109152;23;20595;-74
2022/08/18 05:05:42;;;;;;;13.52;9.68;;;;;;;20.60;91.59;94643.75;6108294;23;20173;-74
2022/08/18 05:08:09;;;;;;;23.98;10.52;;;;;;;20.71;91.56;94643.34;6109649;23;20631;-74
2022/08/18 05:10:35;;;;;;;13.90;9.20;;;;;;;20.75;90.17;94648.88;6109689;23;20196;-75
2022/08/18 05:13:03;;;;;;;16.80;9.73;;;;;;;20.69;89.58;94637.53;6109632;23;20173;-75
2022/08/18 05:15:30;;;;;;;16.58;9.88;;;;;;;20.77;89.34;94641.44;6108620;23;20187;-74
2022/08/18 05:17:57;;;;;;;15.05;9.07;;;;;;;20.74;89.87;94657.84;6108652;23;20682;-74
2022/08/18 05:20:24;;;;;;;15.07;9.57;;;;;;;20.76;90.28;94655.72;6110657;23;20422;-74
2022/08/18 05:22:52;;;;;;;13.57;9.80;;;;;;;20.78;90.13;94656.22;6108372;23;20183;-74
2022/08/18 05:25:19;;;;;;;19.63;10.15;;;;;;;20.72;90.51;94657.34;6109658;23;20179;-74
2022/08/18 05:27:46;;;;;;;19.65;9.70;;;;;;;20.68;90.95;94648.41;6107594;23;20207;-74
2022/08/18 05:30:14;;;;;;;18.25;10.25;;;;;;;20.77;90.33;94654.66;6110120;23;20203;-73
2022/08/18 05:32:43;;;;;;;13.90;9.82;;;;;;;20.80;90.41;94656.72;6108902;23;20571;-74
2022/08/18 05:35:13;;;;;;;17.65;9.48;;;;;;;20.82;90.90;94659.88;6110296;23;20222;-73
2022/08/18 05:37:51;;;;;;;15.50;9.48;;;;;;;21.12;88.33;94648.19;6107859;23;20175;-73
2022/08/18 05:40:24;;;;;;;14.65;9.43;;;;;;;21.55;86.34;94662.97;6111114;23;20156;-74
2022/08/18 05:42:51;;;;;;;21.73;9.35;;;;;;;21.60;85.99;94657.59;6109042;23;20180;-74
2022/08/18 05:45:20;;;;;;;16.25;9.25;;;;;;;21.60;86.18;94664.75;6108146;23;20179;-74
2022/08/18 05:47:47;;;;;;;14.13;8.80;;;;;;;21.57;85.54;94662.66;6106514;23;20176;-73
2022/08/18 05:50:18;;;;;;;14.85;8.63;;;;;;;21.84;84.52;94655.66;6109745;23;20199;-74
2022/08/18 05:52:53;;;;;;;16.58;8.80;;;;;;;22.01;83.56;94660.47;6109369;23;20557;-74
2022/08/18 05:58:17;;;;;;;13.30;8.20;;;;;;;22.17;82.02;94668.94;6109638;23;20163;-73
2022/08/18 06:00:52;;;;;;;17.27;8.88;;;;;;;22.14;83.13;94661.56;6109048;23;20218;-73
2022/08/18 06:03:24;;;;;;;14.23;9.60;;;;;;;22.15;82.63;94669.25;6109612;23;20187;-73
2022/08/18 06:05:56;;;;;;;17.10;8.68;;;;;;;22.14;83.07;94661.56;6108977;23;20167;-74
2022/08/18 06:08:29;;;;;;;12.68;9.20;;;;;;;22.23;81.59;94659.84;6109940;23;20243;-74
2022/08/18 06:10:57;;;;;;;22.13;9.75;;;;;;;22.24;81.22;94658.78;6109385;23;20242;-72
2022/08/18 06:13:24;;;;;;;34.70;10.95;;;;;;;22.33;81.33;94657.81;6108504;23;20180;-72
2022/08/18 06:15:58;;;;;;;18.70;8.95;;;;;;;22.43;80.83;94657.63;6107558;23;20172;-73
2022/08/18 06:18:47;;;;;;;24.40;9.45;;;;;;;22.54;80.38;94661.69;6110544;23;20167;-74
2022/08/18 06:21:33;;;;;;;18.77;9.23;;;;;;;22.59;80.35;94645.72;6109680;23;20164;-74
2022/08/18 06:24:14;;;;;;;18.38;10.27;;;;;;;22.73;78.63;94656.34;6109706;23;20156;-74
2022/08/18 06:26:51;;;;;;;20.55;9.10;;;;;;;22.66;78.53;94658.56;6109279;23;20257;-73
2022/08/18 06:29:33;;;;;;;18.73;9.75;;;;;;;22.64;79.03;94658.09;6108056;23;20191;-73
2022/08/18 06:32:13;;;;;;;13.02;9.82;;;;;;;22.86;78.23;94665.38;6108582;23;20662;-73
2022/08/18 06:34:52;;;;;;;14.93;9.15;;;;;;;23.08;78.06;94662.84;6109570;23;20192;-73
2022/08/18 06:37:28;;;;;;;15.95;9.27;;;;;;;23.19;77.57;94672.16;6108991;23;20235;-73
2022/08/18 06:39:55;;;;;;;18.23;9.25;;;;;;;23.15;76.64;94657.91;6107502;23;20157;-75
2022/08/18 06:42:29;;;;;;;20.38;10.00;;;;;;;23.16;76.38;94668.22;6110300;23;20542;-74
2022/08/18 06:45:01;;;;;;;17.13;9.45;;;;;;;23.09;77.02;94664.38;6108849;23;20218;-73
2022/08/18 06:47:39;;;;;;;16.42;9.55;;;;;;;23.08;78.00;94654.88;6107297;23;20176;-73
2022/08/18 06:50:13;;;;;;;17.42;9.48;;;;;;;23.33;76.43;94661.53;6109167;23;20180;-74
2022/08/18 06:52:52;;;;;;;17.55;9.30;;;;;;;23.49;75.94;94658.28;6108662;23;20557;-74
2022/08/18 06:55:33;;;;;;;16.75;9.25;;;;;;;23.71;74.88;94653.03;6109632;23;20160;-78
2022/08/18 06:58:05;;;;;;;16.25;9.05;;;;;;;23.83;74.04;94649.84;6108977;23;20160;-77
2022/08/18 07:00:35;;;;;;;17.05;9.15;;;;;;;23.88;73.82;94652.38;6110562;23;20218;-77
2022/08/18 07:03:06;;;;;;;18.25;9.00;;;;;;;24.00;73.67;94647.31;6111768;23;20168;-80
2022/08/18 07:05:36;;;;;;;22.33;9.15;;;;;;;24.11;73.03;94642.56;6110289;23;20258;-77
2022/08/18 07:08:11;;;;;;;18.23;9.30;;;;;;;24.26;72.67;94637.69;6111285;23;20180;-75
2022/08/18 07:10:40;;;;;;;18.10;9.93;;;;;;;24.42;72.44;94639.94;6111185;23;20179;-78
2022/08/18 07:13:25;;;;;;;17.60;8.55;;;;;;;24.40;72.68;94631.50;6111208;23;20173;-77
2022/08/18 07:16:22;;;;;;;15.82;7.82;;;;;;;24.36;72.65;94627.88;6110595;23;20211;-79
2022/08/18 07:18:50;;;;;;;10.57;7.50;;;;;;;24.37;72.19;94626.78;6111374;23;20235;-78
2022/08/18 07:21:28;;;;;;;11.82;7.55;;;;;;;24.64;71.34;94624.75;6110205;23;20225;-79
2022/08/18 07:24:01;;;;;;;9.55;7.20;;;;;;;25.00;69.19;94621.91;6109905;23;20230;-81
2022/08/18 07:26:28;;;;;;;9.10;7.43;;;;;;;25.23;68.39;94625.25;6111446;23;20561;-78
2022/08/18 07:29:15;;;;;;;10.52;7.90;;;;;;;25.42;66.85;94628.44;6110139;23;20179;-81
2022/08/18 07:31:49;;;;;;;13.35;6.97;;;;;;;25.43;66.59;94630.00;6109278;23;20279;-76
2022/08/18 07:34:20;;;;;;;10.65;7.03;;;;;;;25.55;64.90;94629.41;6111077;23;20274;-78
2022/08/18 07:36:53;;;;;;;10.57;7.07;;;;;;;25.61;65.31;94626.28;6109791;23;20498;-77
2022/08/18 07:39:25;;;;;;;18.35;7.50;;;;;;;25.63;65.36;94618.75;6108970;23;20164;-83
2022/08/18 07:42:02;;;;;;;10.23;7.47;;;;;;;25.75;65.17;94621.59;6108042;23;20175;-82
2022/08/18 07:44:43;;;;;;;9.23;7.20;;;;;;;25.95;64.15;94633.47;6109503;23;20156;-77
2022/08/18 07:47:18;;;;;;;15.50;7.15;;;;;;;26.06;63.87;94631.31;6113218;23;20165;-76
2022/08/18 07:49:47;;;;;;;12.07;7.25;;;;;;;26.12;63.68;94630.03;6110275;23;20278;-78
2022/08/18 07:52:20;;;;;;;13.02;7.25;;;;;;;26.14;63.04;94633.16;6110290;23;20177;-78
2022/08/18 07:55:00;;;;;;;19.77;7.47;;;;;;;26.19;62.65;94633.03;6110029;23;21056;-78
2022/08/18 07:57:43;;;;;;;10.45;7.00;;;;;;;26.28;63.34;94631.94;6108343;23;20175;-79
2022/08/18 08:00:19;;;;;;;10.73;6.95;;;;;;;26.46;63.18;94627.34;6111250;23;20161;-78
2022/08/18 08:02:55;;;;;;;11.07;7.32;;;;;;;26.65;62.87;94622.41;6110735;23;21002;-78
2022/08/18 08:05:40;;;;;;;10.85;7.35;;;;;;;26.75;61.62;94627.41;6111018;23;20946;-80
2022/08/18 08:08:21;;;;;;;11.45;6.78;;;;;;;26.74;61.07;94631.16;6110930;23;20171;-77
2022/08/18 08:11:03;;;;;;;14.73;7.05;;;;;;;26.94;60.62;94630.47;6111203;23;20187;-81
2022/08/18 08:13:42;;;;;;;8.98;6.75;;;;;;;27.19;59.57;94626.09;6110791;23;20165;-81
2022/08/18 08:16:20;;;;;;;10.82;6.85;;;;;;;27.39;59.43;94633.38;6111633;23;20164;-83
2022/08/18 08:18:55;;;;;;;11.15;6.63;;;;;;;27.47;57.73;94632.59;6112184;23;20267;-80
2022/08/18 08:21:25;;;;;;;9.15;5.93;;;;;;;27.50;56.67;94637.25;6112032;23;20164;-83
2022/08/18 08:24:03;;;;;;;7.97;6.55;;;;;;;27.53;55.66;94619.81;6110362;23;20165;-78
2022/08/18 08:26:46;;;;;;;8.77;6.28;;;;;;;27.65;54.05;94627.13;6110980;23;20200;-82
2022/08/18 08:29:36;;;;;;;11.95;6.05;;;;;;;27.70;54.02;94616.22;6114035;23;20161;-84
2022/08/18 08:32:10;;;;;;;11.73;6.68;;;;;;;27.87;54.10;94626.78;6110223;23;20709;-79
2022/08/18 08:34:46;;;;;;;6.63;5.28;;;;;;;27.89;53.00;94627.22;6112814;23;20259;-86
2022/08/18 08:37:20;;;;;;;10.80;5.88;;;;;;;27.93;53.03;94612.91;6112855;23;20235;-85
2022/08/18 08:39:54;;;;;;;5.32;4.82;;;;;;;28.01;50.41;94629.97;6112278;23;20575;-82
2022/08/18 08:42:31;;;;;;;11.43;6.05;;;;;;;27.99;50.47;94622.28;6112737;23;20161;-79
2022/08/18 08:45:04;;;;;;;8.85;5.03;;;;;;;28.16;50.43;94629.41;6112428;23;20627;-80
2022/08/18 08:47:37;;;;;;;11.38;5.47;;;;;;;28.29;50.41;94622.97;6111366;23;20167;-82
2022/08/18 08:50:08;;;;;;;7.75;5.68;;;;;;;28.47;49.47;94627.03;6112498;23;20203;-79
2022/08/18 08:52:41;;;;;;;9.55;5.47;;;;;;;28.62;48.38;94628.28;6112038;23;20161;-82
2022/08/18 08:55:14;;;;;;;6.47;4.95;;;;;;;28.80;49.16;94621.66;6111911;23;20176;-79
2022/08/18 08:57:47;;;;;;;13.07;5.68;;;;;;;28.89;48.01;94605.50;6110964;23;20364;-79
2022/08/18 09:00:14;;;;;;;9.07;5.07;;;;;;;29.04;47.36;94623.56;6112377;23;20168;-81
2022/08/18 09:02:58;;;;;;;6.63;5.00;;;;;;;29.41;46.53;94619.75;6111080;23;20168;-78
2022/08/18 09:05:29;;;;;;;5.05;4.47;;;;;;;29.60;45.78;94617.28;6109712;23;20164;-77
2022/08/18 09:08:33;;;;;;;9.93;5.03;;;;;;;29.64;46.18;94628.13;6108752;23;20172;-77
2022/08/18 09:11:38;;;;;;;5.97;4.70;;;;;;;29.63;46.61;94619.28;6111044;23;20529;-78
2022/08/18 09:14:32;;;;;;;6.95;4.60;;;;;;;29.71;46.97;94615.69;6118160;23;20168;-76
2022/08/18 09:17:23;;;;;;;7.97;4.85;;;;;;;29.74;46.27;94614.22;6111890;23;20203;-77
2022/08/18 09:20:17;;;;;;;5.28;4.72;;;;;;;29.76;46.50;94607.41;6110288;23;20156;-79
2022/08/18 09:22:48;;;;;;;7.65;4.72;;;;;;;29.84;45.36;94602.28;6108680;23;20173;-78
2022/08/18 09:25:32;;;;;;;9.98;5.13;;;;;;;29.82;44.05;94599.94;6095593;23;20172;-77
2022/08/18 09:28:11;;;;;;;8.57;4.82;;;;;;;29.86;45.43;94595.47;6109657;23;20267;-84
2022/08/18 09:30:46;;;;;;;8.13;4.40;;;;;;;29.84;43.89;94594.25;6113715;23;20225;-85
2022/08/18 09:33:33;;;;;;;5.68;5.07;;;;;;;29.88;43.08;94595.91;6115084;23;20164;-84
2022/08/18 09:36:24;;;;;;;10.93;4.95;;;;;;;29.92;43.14;94588.75;6115586;23;20179;-84
2022/08/18 09:41:48;;;;;;;6.22;4.85;;;;;;;30.12;44.41;94581.63;6111854;23;20252;-85
2022/08/18 09:44:54;;;;;;;8.18;4.82;;;;;;;30.16;43.79;94593.97;6114824;23;20156;-86
2022/08/18 09:48:01;;;;;;;7.15;4.63;;;;;;;30.37;41.79;94593.78;6114517;23;20195;-84
2022/08/18 09:50:54;;;;;;;7.78;4.47;;;;;;;30.46;41.48;94586.38;6116216;23;20196;-85
2022/08/18 09:53:37;;;;;;;11.95;5.20;;;;;;;30.67;42.04;94589.59;6114757;23;20760;-85
2022/08/18 09:56:05;;;;;;;5.55;4.95;;;;;;;30.91;41.20;94586.72;6112368;23;20153;-77
2022/08/18 09:58:52;;;;;;;6.47;4.68;;;;;;;30.90;41.05;94579.81;6111949;23;20498;-76
2022/08/18 10:01:35;;;;;;;8.85;5.78;;;;;;;31.13;42.37;94579.19;6134356;23;20172;-78
2022/08/18 10:04:29;;;;;;;9.45;5.15;;;;;;;31.42;41.93;94568.75;6113013;23;20160;-80
2022/08/18 10:07:15;;;;;;;5.95;4.22;;;;;;;31.29;43.85;94563.81;6123001;23;20172;-77
2022/08/18 10:09:58;;;;;;;10.80;4.95;;;;;;;31.16;41.43;94570.44;6108661;23;20160;-79
2022/08/18 10:12:39;;;;;;;9.27;4.80;;;;;;;31.26;40.86;94577.94;6109985;23;20161;-77
2022/08/18 10:15:32;;;;;;;7.10;4.63;;;;;;;31.36;38.90;94570.13;6110069;23;20160;-77
2022/08/18 10:18:32;;;;;;;5.93;4.30;;;;;;;31.13;39.82;94555.03;6107069;23;20176;-77
2022/08/18 10:21:08;;;;;;;6.95;4.72;;;;;;;31.65;38.69;94566.16;6113721;23;20480;-76
2022/08/18 10:23:47;;;;;;;7.13;4.68;;;;;;;31.89;38.69;94568.56;6108066;23;20246;-77
2022/08/18 10:26:47;;;;;;;10.73;5.20;;;;;;;32.17;38.75;94564.91;6110140;23;20200;-77
2022/08/18 10:29:43;;;;;;;7.38;4.55;;;;;;;32.21;38.87;94563.06;6103418;23;20172;-76
2022/08/18 10:32:22;;;;;;;8.05;4.97;;;;;;;32.21;37.86;94550.34;6110289;23;20200;-76
2022/08/18 10:34:52;;;;;;;5.75;4.60;;;;;;;32.39;36.84;94556.84;6109459;23;20196;-76
2022/08/18 10:37:25;;;;;;;6.35;4.47;;;;;;;32.43;36.69;94562.31;6109734;23;20253;-77
2022/08/18 10:39:56;;;;;;;5.18;4.00;;;;;;;32.51;35.65;94553.19;6109269;23;20242;-77
2022/08/18 10:42:27;;;;;;;10.38;4.43;;;;;;;32.66;35.09;94565.03;6109674;23;20160;-78
2022/08/18 10:45:06;;;;;;;8.85;4.43;;;;;;;32.76;35.04;94548.25;6109664;23;20168;-78
2022/08/18 10:47:33;;;;;;;7.25;3.97;;;;;;;32.82;34.06;94547.59;6107659;23;20171;-78
2022/08/18 10:50:04;;;;;;;4.82;4.20;;;;;;;32.93;34.46;94548.53;6108820;23;20200;-79
2022/08/18 10:52:57;;;;;;;6.97;4.35;;;;;;;33.21;33.82;94550.13;6109355;23;20180;-78
2022/08/18 10:55:36;;;;;;;5.38;4.10;;;;;;;33.56;32.92;94545.22;6108843;23;20164;-78
2022/08/18 10:58:18;;;;;;;7.07;3.97;;;;;;;33.92;33.15;94547.22;6110181;23;20164;-77
2022/08/18 11:00:56;;;;;;;4.50;4.05;;;;;;;34.09;32.13;94546.66;6109029;23;20240;-77
2022/08/18 11:03:39;;;;;;;6.10;3.70;;;;;;;33.87;33.32;94538.69;6108611;23;20240;-78
2022/08/18 11:06:10;;;;;;;5.78;4.82;;;;;;;33.65;34.86;94535.72;6109637;23;20619;-78
2022/08/18 11:08:46;;;;;;;6.82;4.20;;;;;;;34.18;33.62;94532.88;6109804;23;20315;-77
2022/08/18 11:11:21;;;;;;;5.55;4.28;;;;;;;34.46;32.82;94533.13;6110645;23;20180;-78
2022/08/18 11:13:57;;;;;;;8.80;4.35;;;;;;;34.65;31.26;94532.19;6109869;23;20164;-76
2022/08/18 11:16:36;;;;;;;8.27;4.35;;;;;;;34.66;31.69;94529.09;6112277;23;20167;-74
2022/08/18 11:19:07;;;;;;;4.95;4.38;;;;;;;34.59;31.18;94533.69;6111375;23;20163;-76
2022/08/18 11:21:39;;;;;;;4.50;4.03;;;;;;;34.46;32.19;94530.44;6109293;23;20192;-76
2022/08/18 11:24:15;;;;;;;4.63;4.10;;;;;;;34.01;32.45;94530.72;6110111;23;20176;-76
2022/08/18 11:26:47;;;;;;;5.07;4.30;;;;;;;33.99;33.20;94539.22;6109793;23;20691;-76
2022/08/18 11:29:22;;;;;;;6.88;4.25;;;;;;;34.34;31.55;94538.84;6109143;23;20160;-78
2022/08/18 11:31:53;;;;;;;4.57;3.80;;;;;;;34.57;30.88;94539.44;6107781;23;20184;-77
2022/08/18 11:34:27;;;;;;;5.82;4.05;;;;;;;34.49;30.67;94537.03;6109809;23;20176;-77
2022/08/18 11:36:58;;;;;;;8.38;4.38;;;;;;;34.88;31.01;94535.47;6109118;23;20171;-78
2022/08/18 11:39:26;;;;;;;8.18;3.70;;;;;;;35.14;30.09;94523.69;6110155;23;20527;-80
2022/08/18 11:41:56;;;;;;;7.00;4.38;;;;;;;35.30;31.08;94526.88;6109737;23;20226;-77
2022/08/18 11:44:30;;;;;;;8.95;4.75;;;;;;;35.41;30.56;94535.84;6110480;23;20215;-75
2022/08/18 11:47:13;;;;;;;8.07;4.07;;;;;;;35.07;30.38;94526.31;6110781;23;20161;-77
2022/08/18 11:49:52;;;;;;;7.47;3.85;;;;;;;34.89;31.92;94520.81;6109988;23;20172;-77
2022/08/18 11:52:23;;;;;;;8.05;4.05;;;;;;;35.33;30.75;94523.41;6111179;23;20180;-76
2022/08/18 11:54:52;;;;;;;5.78;4.40;;;;;;;35.18;31.79;94514.44;6111935;23;20608;-77
2022/08/18 11:57:53;;;;;;;4.00;3.50;;;;;;;35.07;31.35;94519.00;6112043;23;20172;-78
2022/08/18 12:00:38;;;;;;;6.78;4.35;;;;;;;35.42;29.87;94514.94;6143305;23;20171;-76
2022/08/18 12:03:08;;;;;;;10.35;3.97;;;;;;;35.44;29.65;94513.41;6109459;23;20176;-76
2022/08/18 12:05:45;;;;;;;6.05;4.20;;;;;;;35.07;30.55;94515.50;6108234;23;20160;-77
2022/08/18 12:08:22;;;;;;;10.52;3.33;;;;;;;35.68;29.12;94507.38;6109915;23;20164;-77
2022/08/18 12:11:02;;;;;;;5.13;4.10;;;;;;;35.92;29.53;94515.97;6108841;23;20160;-76
2022/08/18 12:13:30;;;;;;;7.05;4.18;;;;;;;35.87;30.39;94512.47;6108750;23;20156;-75